Rose Valley, Nevada
Current Conditions -  °F | °C
As of 1:53 AM on Saturday 29 Nov 2014 (Local Time) from KELY Reporting Station
Clear Clear  
Wind Chill: 31°   Ceiling: Unl
Heat Index: 39°   Visibility: 10mi
Dew Point: 12°   Wind: 15mph
Humidity: 33%   Direction: 190°S
Pressure: 29.87"   Gusts: NA
Location:  38.2635°N, 114.484°W
Report Text: KELY 290953Z AUTO 19013KT 10SM CLR 04/M11 A2987 RMK AO2 SLP054 T00391111
Loading
Personal Weather Stations






























Interactive Weather Map New forecast layout! Learn more

10-Day Weather Forecast

Advertisements
Track Severe Weather on mobile